Time;durP1;ratioP1;P1;durP2;ratioP2;P2;SDS_P1;SDS_P2;PMS_P1;PMS_P2;Temp;Humidity;BMP_temperature;BMP_pressure;BME280_temperature;BME280_humidity;BME280_pressure;Samples;Min_cycle;Max_cycle;Signal;HPM_P1;HPM_P2
2020/12/20 00:00:54;;;;;;;5.67;3.90;;;8.90;99.90;;;;;;5053622;28;20209;-60
2020/12/20 00:03:20;;;;;;;5.47;3.67;;;8.90;99.90;;;;;;5053786;28;20289;-58
2020/12/20 00:05:46;;;;;;;5.60;3.47;;;9.00;99.90;;;;;;5053413;28;20221;-59
2020/12/20 00:08:13;;;;;;;8.47;4.10;;;9.10;99.90;;;;;;5053460;28;20236;-58
2020/12/20 00:10:40;;;;;;;4.37;3.70;;;9.20;99.90;;;;;;5053841;28;20205;-59
2020/12/20 00:13:06;;;;;;;5.93;4.47;;;9.20;99.90;;;;;;5053833;28;20209;-58
2020/12/20 00:15:32;;;;;;;4.50;3.90;;;9.20;99.90;;;;;;5053286;28;20570;-58
2020/12/20 00:17:58;;;;;;;5.57;4.30;;;9.20;99.90;;;;;;5052987;28;20210;-58
2020/12/20 00:20:26;;;;;;;6.40;4.47;;;9.30;99.90;;;;;;5054663;28;20201;-59
2020/12/20 00:22:52;;;;;;;7.63;4.17;;;9.30;99.90;;;;;;5053589;28;20201;-58
2020/12/20 00:25:18;;;;;;;5.60;4.33;;;9.30;99.90;;;;;;5053002;28;20670;-59
2020/12/20 00:27:45;;;;;;;6.20;4.40;;;9.30;99.90;;;;;;5053149;28;20226;-59
2020/12/20 00:30:11;;;;;;;8.30;4.60;;;9.40;99.90;;;;;;5053090;28;20202;-59
2020/12/20 00:32:37;;;;;;;6.50;4.63;;;9.30;99.90;;;;;;5053503;28;20585;-59
2020/12/20 00:35:05;;;;;;;5.63;4.10;;;9.30;99.90;;;;;;5053288;28;20206;-58
2020/12/20 00:37:31;;;;;;;7.50;4.40;;;9.30;99.90;;;;;;5053577;28;20283;-59
2020/12/20 00:39:57;;;;;;;7.23;4.20;;;9.40;99.90;;;;;;5053000;28;20209;-59
2020/12/20 00:42:23;;;;;;;4.80;4.00;;;9.30;99.90;;;;;;5053054;28;20686;-59
2020/12/20 00:44:51;;;;;;;7.30;4.40;;;9.40;99.90;;;;;;5052747;28;20213;-59
2020/12/20 00:47:17;;;;;;;5.67;4.10;;;9.40;99.90;;;;;;5052772;28;20213;-59
2020/12/20 00:49:43;;;;;;;6.17;4.37;;;9.30;99.90;;;;;;5053172;28;20229;-59
2020/12/20 00:52:09;;;;;;;6.17;4.33;;;9.30;99.90;;;;;;5052769;28;20205;-59
2020/12/20 00:54:36;;;;;;;5.43;3.93;;;9.20;99.90;;;;;;5052472;28;20626;-60
2020/12/20 00:57:03;;;;;;;6.97;3.90;;;9.20;99.90;;;;;;5052657;28;20609;-59
2020/12/20 00:59:29;;;;;;;7.60;4.43;;;9.20;99.90;;;;;;5052420;28;20213;-59
2020/12/20 01:01:57;;;;;;;6.73;4.13;;;9.30;99.90;;;;;;5052626;28;20205;-59
2020/12/20 01:04:23;;;;;;;4.23;3.83;;;9.30;99.90;;;;;;5052532;28;20213;-59
2020/12/20 01:06:54;;;;;;;6.30;4.67;;;9.20;99.90;;;;;;5052651;28;20237;-59
2020/12/20 01:09:20;;;;;;;5.80;3.93;;;9.20;99.90;;;;;;5052299;28;20229;-59
2020/12/20 01:11:46;;;;;;;9.87;4.60;;;9.20;99.90;;;;;;5052500;28;20731;-59
2020/12/20 01:14:13;;;;;;;5.83;4.13;;;9.20;99.90;;;;;;5051978;28;20210;-59
2020/12/20 01:16:39;;;;;;;6.90;4.20;;;9.20;99.90;;;;;;5052372;28;20241;-59
2020/12/20 01:19:06;;;;;;;4.90;4.07;;;9.10;99.90;;;;;;5052393;28;20198;-59
2020/12/20 01:21:34;;;;;;;4.87;4.00;;;9.10;99.90;;;;;;5052474;28;20591;-59
2020/12/20 01:24:00;;;;;;;7.67;4.50;;;9.00;99.90;;;;;;5052413;28;20291;-59
2020/12/20 01:26:28;;;;;;;6.30;4.40;;;9.10;99.90;;;;;;5052251;28;20237;-59
2020/12/20 01:28:55;;;;;;;4.63;3.90;;;9.10;99.90;;;;;;5051081;28;20400;-59
2020/12/20 01:31:21;;;;;;;5.87;4.37;;;9.10;99.90;;;;;;5052339;28;20205;-58
2020/12/20 01:33:47;;;;;;;5.33;4.23;;;9.10;99.90;;;;;;5052014;28;20228;-59
2020/12/20 01:36:15;;;;;;;6.50;4.47;;;9.10;99.90;;;;;;5052099;28;20276;-59
2020/12/20 01:38:41;;;;;;;6.43;4.33;;;9.00;99.90;;;;;;5052978;28;20208;-59
2020/12/20 01:41:08;;;;;;;5.40;3.93;;;9.10;99.90;;;;;;5053032;28;20202;-58
2020/12/20 01:43:45;;;;;;;6.50;4.57;;;9.10;99.90;;;;;;5051456;28;20210;-59
2020/12/20 01:46:13;;;;;;;7.97;4.57;;;9.10;99.90;;;;;;5051912;28;20225;-59
2020/12/20 01:48:40;;;;;;;6.10;4.00;;;9.10;99.90;;;;;;5051470;28;20225;-59
2020/12/20 01:51:07;;;;;;;6.23;4.17;;;9.10;99.90;;;;;;5051693;28;20205;-59
2020/12/20 01:53:35;;;;;;;4.47;3.87;;;9.10;99.90;;;;;;5051265;28;20233;-58
2020/12/20 01:56:03;;;;;;;5.43;4.10;;;9.10;99.90;;;;;;5051450;28;20275;-59
2020/12/20 01:58:29;;;;;;;5.73;3.80;;;9.10;99.90;;;;;;5051422;28;20205;-59
2020/12/20 02:00:56;;;;;;;5.40;3.80;;;9.10;99.90;;;;;;5051731;28;20217;-59
2020/12/20 02:03:24;;;;;;;4.10;3.70;;;9.20;99.90;;;;;;5051587;28;20205;-59
2020/12/20 02:05:51;;;;;;;4.87;3.90;;;9.30;99.90;;;;;;5051178;28;20642;-59
2020/12/20 02:08:17;;;;;;;7.77;4.50;;;9.30;99.90;;;;;;5050998;28;20580;-59
2020/12/20 02:11:02;;;;;;;5.67;3.97;;;9.20;99.90;;;;;;5051315;28;20208;-59
2020/12/20 02:13:28;;;;;;;5.07;3.80;;;9.10;99.90;;;;;;5051219;28;20681;-59
2020/12/20 02:15:54;;;;;;;5.00;4.37;;;9.10;99.90;;;;;;5051338;28;20226;-58
2020/12/20 02:18:20;;;;;;;6.27;4.13;;;9.10;99.90;;;;;;5050992;28;20238;-59
2020/12/20 02:20:47;;;;;;;7.13;3.90;;;9.20;99.90;;;;;;5051312;28;20220;-58
2020/12/20 02:23:14;;;;;;;4.83;4.00;;;9.10;99.90;;;;;;5051361;28;20209;-59
2020/12/20 02:25:40;;;;;;;6.20;3.80;;;9.10;99.90;;;;;;5051132;28;20205;-58
2020/12/20 02:28:07;;;;;;;6.03;3.73;;;9.00;99.90;;;;;;5050951;28;20205;-58
2020/12/20 02:30:33;;;;;;;5.13;4.10;;;9.00;99.90;;;;;;5050953;28;20719;-58
2020/12/20 02:32:59;;;;;;;6.43;4.43;;;8.90;99.90;;;;;;5051080;28;20210;-59
2020/12/20 02:35:26;;;;;;;4.80;4.30;;;8.90;99.90;;;;;;5050715;28;20248;-58
2020/12/20 02:37:52;;;;;;;4.20;3.80;;;8.90;99.90;;;;;;5050914;28;20215;-59
2020/12/20 02:40:19;;;;;;;4.63;3.57;;;8.90;99.90;;;;;;5051006;28;20625;-59
2020/12/20 02:42:45;;;;;;;4.83;3.80;;;8.90;99.90;;;;;;5050921;28;20201;-59
2020/12/20 02:45:11;;;;;;;5.03;3.97;;;8.90;99.90;;;;;;5050392;28;20208;-59
2020/12/20 02:47:37;;;;;;;6.20;4.53;;;8.80;99.90;;;;;;5050906;28;20255;-58
2020/12/20 02:50:04;;;;;;;6.30;4.30;;;8.90;99.90;;;;;;5050645;28;20284;-59
2020/12/20 02:52:30;;;;;;;6.07;3.90;;;8.90;99.90;;;;;;5050840;28;20209;-58
2020/12/20 02:54:56;;;;;;;4.77;3.80;;;8.80;99.90;;;;;;5050450;28;20209;-59
2020/12/20 02:57:23;;;;;;;4.70;4.10;;;8.70;99.90;;;;;;5050533;28;20229;-58
2020/12/20 02:59:49;;;;;;;4.53;3.53;;;8.70;99.90;;;;;;5050490;28;20201;-58
2020/12/20 03:02:15;;;;;;;4.63;4.13;;;8.60;99.90;;;;;;5050650;28;20221;-58
2020/12/20 03:04:41;;;;;;;6.40;3.67;;;8.60;99.90;;;;;;5050284;28;20260;-58
2020/12/20 03:07:08;;;;;;;5.83;4.20;;;8.60;99.90;;;;;;5073580;22;20225;-58
2020/12/20 03:09:34;;;;;;;4.87;4.13;;;8.60;99.90;;;;;;5050885;28;20229;-58
2020/12/20 03:12:00;;;;;;;5.30;4.20;;;8.60;99.90;;;;;;5050620;28;20214;-58
2020/12/20 03:14:27;;;;;;;6.23;4.43;;;8.50;99.90;;;;;;5050263;28;20210;-58
2020/12/20 03:16:53;;;;;;;5.83;4.70;;;8.60;99.90;;;;;;5050343;28;20505;-58
2020/12/20 03:19:19;;;;;;;7.67;4.50;;;8.60;99.90;;;;;;5050090;28;20685;-58
2020/12/20 03:21:45;;;;;;;6.43;4.60;;;8.70;99.90;;;;;;5050417;28;20665;-58
2020/12/20 03:24:11;;;;;;;5.03;4.20;;;8.70;99.90;;;;;;5050527;28;20300;-58
2020/12/20 03:26:38;;;;;;;5.50;4.10;;;8.80;99.90;;;;;;5050450;28;20279;-58
2020/12/20 03:29:04;;;;;;;6.97;4.20;;;8.80;99.90;;;;;;5050140;28;20222;-58
2020/12/20 03:31:31;;;;;;;6.10;4.40;;;8.80;99.90;;;;;;5050527;28;20214;-58
2020/12/20 03:33:57;;;;;;;7.30;4.00;;;8.90;99.90;;;;;;5050056;28;20267;-58
2020/12/20 03:36:23;;;;;;;5.20;4.17;;;9.00;99.90;;;;;;5050791;28;20221;-58
2020/12/20 03:38:49;;;;;;;6.57;3.97;;;9.00;99.90;;;;;;5050237;28;20197;-58
2020/12/20 03:41:15;;;;;;;4.90;4.33;;;9.00;99.90;;;;;;5050836;28;20209;-58
2020/12/20 03:43:41;;;;;;;5.27;4.40;;;9.00;99.90;;;;;;5049967;28;20206;-58
2020/12/20 03:46:08;;;;;;;5.43;4.13;;;9.00;99.90;;;;;;5050219;28;20261;-58
2020/12/20 03:48:35;;;;;;;6.10;4.50;;;9.10;99.90;;;;;;5049726;28;20221;-59
2020/12/20 03:51:01;;;;;;;4.10;3.57;;;9.20;99.90;;;;;;5050230;28;20213;-58
2020/12/20 03:53:27;;;;;;;5.20;4.30;;;9.20;99.90;;;;;;5052226;28;20205;-58
2020/12/20 03:55:53;;;;;;;5.40;4.43;;;9.20;99.90;;;;;;5053824;28;20205;-58
2020/12/20 03:58:19;;;;;;;5.47;4.40;;;9.20;99.90;;;;;;5053569;28;20255;-58
2020/12/20 04:00:45;;;;;;;5.20;4.20;;;9.30;99.90;;;;;;5053717;28;20205;-59
2020/12/20 04:03:11;;;;;;;6.77;4.10;;;9.30;99.90;;;;;;5053705;28;20202;-58
2020/12/20 04:05:38;;;;;;;6.53;4.17;;;9.40;99.90;;;;;;5053474;28;20259;-58
2020/12/20 04:08:04;;;;;;;6.37;4.00;;;9.40;99.90;;;;;;5053157;28;20268;-58
2020/12/20 04:10:31;;;;;;;4.33;3.93;;;9.40;99.90;;;;;;5053485;28;20706;-57
2020/12/20 04:12:57;;;;;;;5.27;3.73;;;9.40;99.90;;;;;;5053474;28;20205;-58
2020/12/20 04:15:23;;;;;;;6.03;4.23;;;9.30;99.90;;;;;;5053044;28;20209;-58
2020/12/20 04:17:49;;;;;;;4.13;3.67;;;9.20;99.90;;;;;;5052867;28;20726;-58
2020/12/20 04:20:15;;;;;;;5.97;3.90;;;9.20;99.90;;;;;;5053486;28;20220;-58
2020/12/20 04:22:42;;;;;;;4.23;3.83;;;9.30;99.90;;;;;;5053454;28;20244;-58
2020/12/20 04:25:08;;;;;;;6.00;4.30;;;9.40;99.90;;;;;;5052991;28;20205;-58
2020/12/20 04:27:35;;;;;;;9.20;4.23;;;9.40;99.90;;;;;;5053080;28;20232;-58
2020/12/20 04:30:01;;;;;;;4.73;4.07;;;9.40;99.90;;;;;;5052838;28;20705;-58
2020/12/20 04:32:27;;;;;;;5.47;4.03;;;9.40;99.90;;;;;;5053208;28;20217;-58
2020/12/20 04:34:53;;;;;;;4.73;3.83;;;9.30;99.90;;;;;;5052895;28;20201;-59
2020/12/20 04:37:19;;;;;;;4.53;3.80;;;9.20;99.90;;;;;;5052943;28;20234;-58
2020/12/20 04:39:46;;;;;;;5.23;3.70;;;9.30;99.90;;;;;;5052791;28;20233;-58
2020/12/20 04:42:12;;;;;;;5.80;3.63;;;9.40;99.90;;;;;;5052908;28;20665;-58
2020/12/20 04:44:39;;;;;;;5.77;4.17;;;9.40;99.90;;;;;;5052522;28;20217;-58
2020/12/20 04:47:06;;;;;;;6.07;4.13;;;9.20;99.90;;;;;;5053059;28;20233;-58
2020/12/20 04:49:33;;;;;;;4.97;3.87;;;9.20;99.90;;;;;;5052677;28;20229;-58
2020/12/20 04:52:00;;;;;;;4.37;3.97;;;9.20;99.90;;;;;;5052749;28;20677;-58
2020/12/20 04:54:26;;;;;;;4.80;4.10;;;9.20;99.90;;;;;;5052634;28;20209;-58
2020/12/20 04:56:53;;;;;;;4.87;4.00;;;9.10;99.90;;;;;;5052854;28;20233;-58
2020/12/20 04:59:20;;;;;;;4.23;3.80;;;9.10;99.90;;;;;;5052750;28;20238;-58
2020/12/20 05:01:46;;;;;;;4.60;3.93;;;9.10;99.90;;;;;;5052901;28;20210;-58
2020/12/20 05:04:12;;;;;;;7.30;4.27;;;9.20;99.90;;;;;;5050913;28;20693;-58
2020/12/20 05:06:38;;;;;;;4.97;4.00;;;9.20;99.90;;;;;;5052518;28;20240;-58
2020/12/20 05:09:06;;;;;;;5.83;4.13;;;9.20;99.90;;;;;;5052622;28;20221;-58
2020/12/20 05:11:35;;;;;;;6.47;3.87;;;9.20;99.90;;;;;;5052579;28;20201;-58
2020/12/20 05:14:03;;;;;;;4.10;3.70;;;9.10;99.90;;;;;;5052137;28;20210;-58
2020/12/20 05:16:34;;;;;;;4.00;3.60;;;9.00;99.90;;;;;;5052531;28;20240;-58
2020/12/20 05:19:01;;;;;;;6.37;3.60;;;9.00;99.90;;;;;;5052173;28;20205;-58
2020/12/20 05:21:29;;;;;;;5.30;3.50;;;9.00;99.90;;;;;;5052315;28;20251;-59
2020/12/20 05:23:56;;;;;;;5.30;3.60;;;9.00;99.90;;;;;;5051765;28;20735;-58
2020/12/20 05:26:26;;;;;;;4.10;3.50;;;9.00;99.90;;;;;;5052017;28;20230;-58
2020/12/20 05:28:53;;;;;;;4.70;3.63;;;9.00;99.90;;;;;;5052074;28;20707;-58
2020/12/20 05:31:21;;;;;;;3.77;3.23;;;9.00;99.90;;;;;;5052127;28;20217;-58
2020/12/20 05:33:49;;;;;;;4.27;3.73;;;9.00;99.90;;;;;;5051904;28;20209;-58
2020/12/20 05:36:24;;;;;;;4.10;3.40;;;9.00;99.90;;;;;;5051757;28;20720;-58
2020/12/20 05:38:50;;;;;;;4.90;3.60;;;9.00;99.90;;;;;;5051449;28;20287;-58
2020/12/20 05:41:28;;;;;;;5.90;3.57;;;9.00;99.90;;;;;;5051942;28;20206;-58
2020/12/20 05:44:16;;;;;;;5.43;3.30;;;9.00;99.90;;;;;;5051531;28;20205;-58
2020/12/20 05:46:45;;;;;;;3.97;3.57;;;9.10;99.90;;;;;;5051665;28;20237;-58
2020/12/20 05:49:15;;;;;;;8.00;4.40;;;9.10;99.90;;;;;;5051274;28;20225;-58
2020/12/20 05:52:01;;;;;;;5.90;4.47;;;9.10;99.90;;;;;;5051751;28;20206;-58
2020/12/20 05:54:31;;;;;;;4.80;3.67;;;9.10;99.90;;;;;;5051063;28;20703;-58
2020/12/20 05:57:09;;;;;;;5.27;3.70;;;9.00;99.90;;;;;;5051570;28;20229;-58
2020/12/20 05:59:35;;;;;;;4.10;3.30;;;9.00;99.90;;;;;;5051066;28;20688;-58
2020/12/20 06:02:03;;;;;;;5.13;3.53;;;9.10;99.90;;;;;;5051318;28;20205;-58
2020/12/20 06:04:31;;;;;;;5.00;3.67;;;9.10;99.90;;;;;;5051242;28;20210;-58
2020/12/20 06:06:58;;;;;;;4.53;3.60;;;9.10;99.90;;;;;;5051206;28;20229;-58
2020/12/20 06:09:26;;;;;;;5.57;4.03;;;9.10;99.90;;;;;;5051483;28;20229;-58
2020/12/20 06:11:53;;;;;;;5.33;3.67;;;9.20;99.90;;;;;;5051319;28;20247;-58
2020/12/20 06:14:24;;;;;;;4.20;3.60;;;9.30;99.90;;;;;;5050906;28;20296;-58
2020/12/20 06:17:13;;;;;;;4.67;3.37;;;9.30;99.90;;;;;;5051018;28;20230;-58
2020/12/20 06:19:55;;;;;;;5.30;3.83;;;9.30;99.90;;;;;;5051219;28;20202;-58
2020/12/20 06:22:27;;;;;;;4.87;3.27;;;9.40;99.90;;;;;;5051158;28;20205;-58
2020/12/20 06:24:55;;;;;;;5.07;3.53;;;9.30;99.90;;;;;;5050540;28;20205;-58
2020/12/20 06:27:23;;;;;;;4.53;3.83;;;9.30;99.90;;;;;;5051178;28;20256;-58
2020/12/20 06:29:51;;;;;;;5.30;3.87;;;9.20;99.90;;;;;;5050767;28;20221;-58
2020/12/20 06:32:23;;;;;;;4.77;3.60;;;9.10;99.90;;;;;;5050968;28;20209;-58
2020/12/20 06:34:49;;;;;;;6.60;3.93;;;9.20;99.90;;;;;;5050717;28;20216;-58
2020/12/20 06:37:18;;;;;;;4.73;3.70;;;9.10;99.90;;;;;;5050624;28;20229;-58
2020/12/20 06:39:45;;;;;;;4.80;3.50;;;9.20;99.90;;;;;;5050470;28;20551;-58
2020/12/20 06:42:12;;;;;;;3.87;3.47;;;9.20;99.90;;;;;;5050958;28;20209;-58
2020/12/20 06:44:38;;;;;;;5.50;3.80;;;9.20;99.90;;;;;;5050505;28;20233;-57
2020/12/20 06:47:04;;;;;;;4.77;3.63;;;9.00;99.90;;;;;;5050693;28;20228;-58
2020/12/20 06:49:39;;;;;;;6.37;4.20;;;9.10;99.90;;;;;;5050377;28;20218;-58
2020/12/20 06:52:27;;;;;;;4.73;3.50;;;9.10;99.90;;;;;;5050958;28;20209;-58
2020/12/20 06:55:08;;;;;;;5.47;3.90;;;9.20;99.90;;;;;;5050718;28;20201;-58
2020/12/20 06:57:35;;;;;;;4.77;3.93;;;9.20;99.90;;;;;;5051144;28;20232;-58
2020/12/20 07:00:03;;;;;;;5.67;4.07;;;9.20;99.90;;;;;;5050889;28;20201;-58
2020/12/20 07:02:46;;;;;;;6.07;3.90;;;9.10;99.90;;;;;;5050913;28;20202;-58
2020/12/20 07:05:40;;;;;;;4.63;3.77;;;9.20;99.90;;;;;;5050662;28;20205;-58
2020/12/20 07:08:24;;;;;;;4.77;3.70;;;9.30;99.90;;;;;;5050364;28;20237;-58
2020/12/20 07:10:51;;;;;;;5.10;3.93;;;9.30;99.90;;;;;;5051005;28;20190;-57
2020/12/20 07:13:32;;;;;;;4.80;3.80;;;9.20;99.90;;;;;;5050609;28;20209;-58
2020/12/20 07:16:05;;;;;;;6.00;3.70;;;9.30;99.90;;;;;;5050715;28;20300;-58
2020/12/20 07:18:41;;;;;;;5.17;4.07;;;9.20;99.90;;;;;;5050371;28;20209;-57
2020/12/20 07:21:11;;;;;;;4.63;3.90;;;9.20;99.90;;;;;;5050674;28;20209;-57
2020/12/20 07:23:42;;;;;;;5.60;3.90;;;9.00;99.90;;;;;;5050642;28;20201;-58
2020/12/20 07:26:09;;;;;;;5.90;3.77;;;8.90;99.90;;;;;;5050967;28;20237;-58
2020/12/20 07:28:36;;;;;;;5.33;4.13;;;8.80;99.90;;;;;;5053206;28;20210;-58
2020/12/20 07:31:03;;;;;;;5.53;4.07;;;8.80;99.90;;;;;;5054757;28;20255;-57
2020/12/20 07:33:29;;;;;;;5.87;4.10;;;8.80;99.90;;;;;;5053969;28;20201;-57
2020/12/20 07:35:55;;;;;;;4.33;3.67;;;8.70;99.90;;;;;;5054711;28;20217;-57
2020/12/20 07:38:22;;;;;;;5.93;4.27;;;8.60;99.90;;;;;;5054100;28;20213;-57
2020/12/20 07:40:48;;;;;;;7.23;4.40;;;8.50;99.90;;;;;;5054349;28;20587;-58
2020/12/20 07:43:18;;;;;;;4.60;3.87;;;8.50;99.90;;;;;;5054094;28;20206;-58
2020/12/20 07:45:57;;;;;;;5.03;4.17;;;8.50;99.90;;;;;;5053675;28;20279;-58
2020/12/20 07:48:24;;;;;;;4.30;3.90;;;8.40;99.90;;;;;;5054041;28;20296;-57
2020/12/20 07:50:50;;;;;;;4.90;4.00;;;8.40;99.90;;;;;;5053868;28;20321;-58
2020/12/20 07:53:16;;;;;;;4.83;4.30;;;8.50;99.90;;;;;;5053847;28;20206;-57
2020/12/20 07:55:48;;;;;;;4.57;3.83;;;8.40;99.90;;;;;;5053449;28;20238;-58
2020/12/20 07:58:16;;;;;;;5.17;3.80;;;8.40;99.90;;;;;;5053470;28;20212;-58
2020/12/20 08:00:44;;;;;;;4.90;3.70;;;8.40;99.90;;;;;;5053710;28;20673;-58
2020/12/20 08:03:10;;;;;;;5.20;4.00;;;8.40;99.90;;;;;;5053967;28;20205;-58
2020/12/20 08:05:37;;;;;;;5.43;4.10;;;8.40;99.90;;;;;;5053287;28;20202;-58
2020/12/20 08:08:03;;;;;;;5.60;4.27;;;8.40;99.90;;;;;;5053098;28;20237;-59
2020/12/20 08:10:29;;;;;;;5.80;4.37;;;8.40;99.90;;;;;;5053981;28;20249;-59
2020/12/20 08:12:56;;;;;;;5.23;4.20;;;8.50;99.90;;;;;;5053896;28;20206;-59
2020/12/20 08:15:22;;;;;;;5.40;3.80;;;8.50;99.90;;;;;;5053353;28;20216;-59
2020/12/20 08:17:49;;;;;;;6.63;4.33;;;8.60;99.90;;;;;;5052906;28;20570;-59
2020/12/20 08:20:15;;;;;;;6.23;4.53;;;8.70;99.90;;;;;;5053722;28;20206;-59
2020/12/20 08:22:43;;;;;;;5.63;4.67;;;8.80;99.90;;;;;;5053681;28;20205;-59
2020/12/20 08:25:10;;;;;;;5.50;4.90;;;9.00;99.90;;;;;;5053047;28;20213;-59
2020/12/20 08:27:39;;;;;;;5.47;4.70;;;9.10;99.90;;;;;;5053162;28;20230;-59
2020/12/20 08:30:08;;;;;;;4.77;3.93;;;9.20;99.90;;;;;;5053275;28;20236;-58
2020/12/20 08:32:36;;;;;;;6.03;5.10;;;9.20;99.90;;;;;;5053846;28;20213;-58
2020/12/20 08:35:15;;;;;;;5.17;4.27;;;9.30;99.90;;;;;;5053350;28;20210;-58
2020/12/20 08:37:42;;;;;;;4.53;3.50;;;9.40;99.90;;;;;;5053213;28;20709;-58
2020/12/20 08:40:13;;;;;;;5.50;3.67;;;9.50;99.90;;;;;;5052736;28;20587;-58
2020/12/20 08:42:40;;;;;;;5.10;4.10;;;9.50;99.90;;;;;;5053223;28;20209;-58
2020/12/20 08:45:16;;;;;;;6.93;3.90;;;9.50;99.90;;;;;;5053383;28;20201;-58
2020/12/20 08:47:43;;;;;;;5.07;4.00;;;9.70;99.90;;;;;;5053370;28;20225;-59
2020/12/20 08:50:10;;;;;;;6.53;4.60;;;9.90;99.90;;;;;;5053300;28;20221;-60
2020/12/20 08:52:36;;;;;;;5.77;4.37;;;10.00;99.90;;;;;;5052915;28;20213;-61
2020/12/20 08:55:05;;;;;;;6.13;4.57;;;10.10;99.90;;;;;;5052955;28;20279;-60
2020/12/20 08:57:32;;;;;;;5.33;4.63;;;10.20;99.90;;;;;;5052862;28;20612;-60
2020/12/20 09:00:08;;;;;;;4.67;4.20;;;10.30;99.90;;;;;;5052749;28;20247;-60
2020/12/20 09:02:35;;;;;;;6.03;4.17;;;10.40;99.90;;;;;;5053058;28;20205;-59
2020/12/20 09:05:03;;;;;;;5.30;4.67;;;10.20;99.90;;;;;;5052527;28;20209;-60
2020/12/20 09:07:32;;;;;;;7.93;4.93;;;10.00;99.90;;;;;;5053188;28;20233;-60
2020/12/20 09:10:03;;;;;;;8.77;6.47;;;9.90;99.90;;;;;;5052656;28;20280;-60
2020/12/20 09:12:30;;;;;;;4.97;3.67;;;10.00;99.90;;;;;;5052793;28;20360;-61
2020/12/20 09:15:10;;;;;;;6.97;5.13;;;10.00;99.90;;;;;;5048082;28;21049;-59
2020/12/20 09:17:39;;;;;;;6.00;4.83;;;10.00;99.90;;;;;;5051363;28;20225;-64
2020/12/20 09:20:07;;;;;;;11.07;6.07;;;10.00;99.90;;;;;;5052249;28;20202;-63
2020/12/20 09:22:41;;;;;;;6.73;4.87;;;10.00;99.90;;;;;;5052559;28;20210;-61
2020/12/20 09:25:08;;;;;;;6.73;4.20;;;10.00;99.90;;;;;;5052486;28;20206;-61
2020/12/20 09:27:34;;;;;;;6.67;4.60;;;10.00;99.90;;;;;;5052336;28;20275;-63
2020/12/20 09:30:02;;;;;;;7.30;4.80;;;9.90;99.90;;;;;;5051776;28;20587;-63
2020/12/20 09:32:36;;;;;;;8.17;5.37;;;10.00;99.90;;;;;;5052464;28;20209;-62
2020/12/20 09:35:08;;;;;;;6.90;5.20;;;10.10;99.90;;;;;;5051753;28;20719;-62
2020/12/20 09:37:39;;;;;;;6.77;4.93;;;10.20;99.90;;;;;;5051859;28;20718;-62
2020/12/20 09:40:06;;;;;;;6.73;5.03;;;10.30;99.90;;;;;;5051716;28;20740;-62
2020/12/20 09:42:40;;;;;;;5.57;4.50;;;10.50;99.90;;;;;;5052018;28;20205;-63
2020/12/20 09:45:07;;;;;;;5.73;4.73;;;10.70;99.90;;;;;;5051923;28;20209;-62
2020/12/20 09:47:38;;;;;;;5.40;4.43;;;10.90;99.90;;;;;;5052049;28;20222;-62
2020/12/20 09:50:05;;;;;;;6.23;4.73;;;10.80;99.90;;;;;;5051738;28;20230;-62
2020/12/20 09:52:31;;;;;;;6.57;4.70;;;10.70;99.90;;;;;;5051912;28;20297;-62
2020/12/20 09:54:57;;;;;;;6.23;5.30;;;10.70;99.90;;;;;;5051653;28;20201;-62
2020/12/20 09:57:23;;;;;;;5.40;4.87;;;10.70;99.90;;;;;;5051807;28;20225;-62
2020/12/20 09:59:49;;;;;;;5.67;4.50;;;10.70;99.90;;;;;;5051684;28;20202;-63
2020/12/20 10:02:16;;;;;;;5.23;4.50;;;10.90;99.90;;;;;;5051654;28;20206;-62
2020/12/20 10:04:43;;;;;;;4.97;4.47;;;11.00;99.90;;;;;;5051097;28;20213;-62
2020/12/20 10:07:09;;;;;;;5.97;5.03;;;11.10;99.90;;;;;;5051237;28;20585;-62
2020/12/20 10:09:35;;;;;;;7.30;4.23;;;11.30;99.90;;;;;;5051035;28;20237;-63
2020/12/20 10:12:01;;;;;;;5.40;4.40;;;11.60;99.90;;;;;;5051396;28;20232;-62
2020/12/20 10:14:27;;;;;;;5.57;4.27;;;11.90;99.60;;;;;;5051308;28;20217;-62
2020/12/20 10:16:54;;;;;;;5.50;4.33;;;12.00;99.10;;;;;;5051225;28;20226;-62
2020/12/20 10:19:20;;;;;;;8.70;4.80;;;12.00;99.00;;;;;;5051031;28;20202;-62
2020/12/20 10:21:49;;;;;;;7.00;4.87;;;12.10;99.10;;;;;;5051665;28;20212;-62
2020/12/20 10:24:16;;;;;;;6.13;5.07;;;12.30;98.90;;;;;;5051047;28;20304;-62
2020/12/20 10:26:44;;;;;;;7.20;6.00;;;12.50;98.70;;;;;;5051277;28;20221;-62
2020/12/20 10:29:13;;;;;;;9.67;6.57;;;12.60;98.30;;;;;;5050749;28;20232;-63
2020/12/20 10:31:39;;;;;;;9.13;7.50;;;12.70;98.20;;;;;;5051678;28;20201;-62
2020/12/20 10:34:05;;;;;;;7.00;5.47;;;12.80;98.10;;;;;;5051249;28;20206;-63
2020/12/20 10:36:32;;;;;;;5.33;4.73;;;12.90;97.90;;;;;;5051229;28;20229;-62
2020/12/20 10:38:59;;;;;;;5.67;4.53;;;13.10;97.90;;;;;;5050692;28;20209;-62
2020/12/20 10:41:25;;;;;;;8.63;5.40;;;13.40;97.90;;;;;;5051357;28;20484;-62
2020/12/20 10:43:52;;;;;;;6.93;5.20;;;13.60;97.80;;;;;;5051020;28;20213;-62
2020/12/20 10:46:18;;;;;;;8.33;4.93;;;13.80;97.60;;;;;;5050942;28;20355;-62
2020/12/20 10:48:44;;;;;;;7.10;4.90;;;14.00;97.50;;;;;;5050639;28;20201;-62
2020/12/20 10:51:10;;;;;;;7.50;5.13;;;14.20;97.40;;;;;;5051196;28;20412;-62
2020/12/20 10:53:37;;;;;;;7.90;4.60;;;14.40;97.20;;;;;;5050650;28;20240;-62
2020/12/20 10:56:05;;;;;;;5.97;4.90;;;14.60;97.00;;;;;;5051127;28;20205;-62
2020/12/20 10:58:31;;;;;;;20.97;12.83;;;14.70;96.90;;;;;;5050974;28;20210;-62
2020/12/20 11:00:57;;;;;;;6.90;5.67;;;14.80;96.80;;;;;;5050879;28;20204;-62
2020/12/20 11:03:23;;;;;;;6.90;5.33;;;14.80;96.70;;;;;;5054517;28;20205;-62
2020/12/20 11:05:49;;;;;;;6.80;4.80;;;14.90;96.60;;;;;;5055112;28;20632;-62
2020/12/20 11:08:15;;;;;;;7.07;5.30;;;14.90;96.50;;;;;;5054891;28;20217;-62
2020/12/20 11:10:42;;;;;;;11.77;5.83;;;14.90;96.50;;;;;;5054867;28;20655;-62
2020/12/20 11:13:09;;;;;;;8.50;5.90;;;14.90;96.40;;;;;;5055124;28;20213;-62
2020/12/20 11:15:35;;;;;;;7.20;6.03;;;14.90;96.40;;;;;;5054473;28;20209;-62
2020/12/20 11:18:01;;;;;;;8.00;5.67;;;15.00;96.40;;;;;;5054674;28;20236;-62
2020/12/20 11:20:27;;;;;;;8.17;6.13;;;15.00;96.00;;;;;;5054616;28;20201;-63
2020/12/20 11:22:54;;;;;;;7.60;5.77;;;15.00;96.20;;;;;;5055427;28;20211;-62
2020/12/20 11:25:20;;;;;;;8.27;5.87;;;15.10;95.80;;;;;;5054732;28;20209;-62
2020/12/20 11:27:47;;;;;;;8.67;6.13;;;15.00;96.10;;;;;;5054656;28;20229;-62
2020/12/20 11:30:13;;;;;;;9.63;5.70;;;15.00;96.20;;;;;;5054634;28;20503;-62
2020/12/20 11:32:40;;;;;;;8.63;6.47;;;14.90;96.40;;;;;;5054885;28;20232;-62
2020/12/20 11:35:06;;;;;;;6.97;5.43;;;15.00;96.20;;;;;;5054388;28;20210;-62
2020/12/20 11:37:32;;;;;;;7.57;5.80;;;14.90;96.30;;;;;;5054316;28;20225;-62
2020/12/20 11:39:59;;;;;;;5.97;5.30;;;15.00;96.50;;;;;;5054770;28;20205;-63
2020/12/20 11:42:25;;;;;;;6.23;5.00;;;15.00;96.50;;;;;;5055112;28;20209;-63
2020/12/20 11:44:51;;;;;;;6.70;5.30;;;14.90;96.60;;;;;;5054589;28;20225;-63
2020/12/20 11:47:18;;;;;;;8.00;5.70;;;14.90;96.60;;;;;;5054279;28;20225;-63
2020/12/20 11:49:44;;;;;;;8.13;6.30;;;14.80;96.90;;;;;;5053665;28;20261;-63
2020/12/20 11:52:10;;;;;;;7.60;5.33;;;14.70;96.70;;;;;;5054383;28;20211;-63
2020/12/20 11:54:38;;;;;;;7.43;5.47;;;14.60;96.80;;;;;;5054169;28;20205;-62
2020/12/20 11:57:04;;;;;;;8.23;5.70;;;14.40;97.20;;;;;;5054202;28;20225;-61
2020/12/20 11:59:31;;;;;;;7.37;5.60;;;14.30;97.10;;;;;;5053738;28;20209;-64
2020/12/20 12:01:59;;;;;;;9.07;4.90;;;14.40;97.20;;;;;;5054411;28;20697;-62
2020/12/20 12:04:26;;;;;;;6.30;5.47;;;14.50;96.70;;;;;;5053844;28;20244;-62
2020/12/20 12:06:52;;;;;;;8.70;5.30;;;14.40;96.80;;;;;;5054060;28;20233;-62
2020/12/20 12:09:19;;;;;;;6.47;5.37;;;14.20;97.10;;;;;;5053646;28;20226;-62
2020/12/20 12:11:45;;;;;;;5.77;5.17;;;14.00;97.40;;;;;;5053867;28;20206;-62
2020/12/20 12:14:11;;;;;;;6.70;5.03;;;13.90;97.60;;;;;;5052777;28;20218;-62
2020/12/20 12:16:37;;;;;;;8.07;5.33;;;13.80;97.60;;;;;;5053920;28;20230;-63
2020/12/20 12:19:04;;;;;;;11.30;5.60;;;13.90;97.60;;;;;;5053444;28;20202;-62
2020/12/20 12:21:31;;;;;;;7.53;5.70;;;13.90;97.60;;;;;;5053953;28;20216;-62
2020/12/20 12:23:57;;;;;;;6.90;5.60;;;13.70;97.70;;;;;;5053647;28;20206;-62
2020/12/20 12:26:23;;;;;;;8.10;6.07;;;13.70;97.90;;;;;;5054009;28;20222;-62
2020/12/20 12:28:49;;;;;;;5.80;5.13;;;13.70;98.10;;;;;;5053539;28;20209;-62
2020/12/20 12:31:15;;;;;;;7.53;5.30;;;13.70;98.30;;;;;;5053494;28;20242;-62
2020/12/20 12:33:41;;;;;;;8.23;5.53;;;13.60;98.80;;;;;;5053589;28;20205;-62
2020/12/20 12:36:07;;;;;;;6.57;5.10;;;13.50;98.90;;;;;;5053830;28;20202;-62
2020/12/20 12:38:34;;;;;;;7.40;5.83;;;13.50;99.20;;;;;;5053449;28;20255;-62
2020/12/20 12:41:01;;;;;;;9.47;5.30;;;13.50;99.30;;;;;;5053933;28;20205;-61
2020/12/20 12:43:27;;;;;;;7.57;5.07;;;13.40;99.40;;;;;;5053195;28;20292;-61
2020/12/20 12:45:53;;;;;;;6.03;5.20;;;13.40;99.40;;;;;;5053381;28;20700;-62
2020/12/20 12:48:19;;;;;;;7.17;5.73;;;13.30;99.20;;;;;;5053378;28;20214;-63
2020/12/20 12:50:45;;;;;;;8.77;4.97;;;13.40;99.10;;;;;;5053344;28;20255;-61
2020/12/20 12:53:11;;;;;;;10.07;5.63;;;13.50;98.90;;;;;;5053348;28;20610;-62
2020/12/20 12:55:39;;;;;;;7.30;5.50;;;13.60;98.90;;;;;;5052805;28;20269;-62